Ingleside, IL (60041)

10:16 PM CDT on August 29, 2015 (GMT -0500)
nippersink | | Change Station
CLOSE
Current Station
Personal Weather Station
Location: Ingleside, IL
Elevation: 840 ft
Nearby Weather Stations
Active Advisory: Special Statement Active Notice: Local Storm Report

Elev 840 ft 42.37 °N, 88.17 °W | Updated 4 minutes ago

Fog
Fog
63.5 °F
Feels Like 63.5 °F
N
2.7
Wind Variable Wind from NNE

Today
High -- | Low -- °F
--% Chance of Precip.
Yesterday
High -- | Low -- °F
Precip. -- in
6:14 AM 7:32 PM
Full, 100% visible
Pressure 30.03 in
Visibility 0.8 miles
Clouds
Dew Point 62 °F
Humidity 94%
Rainfall 0.85 in
Snow Depth Not available.
UV Not available.
Pollen 1.10 out of 12
Air Quality Not available.
Flu Activity Not available.
SPECI KUGN 300313Z AUTO 34004KT 3/4SM BR VV002 17/17 A3003 RMK AO2 T01720172
Pressure 30.03 in
Visibility 0.8 miles
Clouds
Dew Point 62 °F
Humidity 94%
Rainfall 0.85 in
Snow Depth Not available.
UV Not available.
Pollen 1.10 out of 12
Air Quality Not available.
Flu Activity Not available.
SPECI KUGN 300313Z AUTO 34004KT 3/4SM BR VV002 17/17 A3003 RMK AO2 T01720172

10-Day Weather Forecast

×

Almanac

Astronomy

Aug. 29, 2015 Rise Set
Actual Time
Civil Twilight
Nautical Twilight
Astronomical Twilight
Moon
Length of Visible Light
Length of Day
Tomorrow will be .
, % of the Moon is Illuminated

Today's Extremes

State Highs State Lows

Community

WunderPhotos

Upload Photos

1,850,867 photos uploaded!

WunderBlogs® & News

Nearby

Air Quality

  Air Quality AQ Index Pollutant
Not available.

Snow Depth

Station Depth Elevation

Earthquake Activity

City Distance Mag. Time & Date
Minimum magnitude displayed is 2.5.

Coastal Water Temperatures

Place Temperature

Stations

Nearby Weather Stations

Station Location Temp. Windchill Dew Point Humidity Wind Precip. Elev Updated Type
                   
Special Statement
Statement as of 9:17 PM CDT on August 29, 2015

... Areas of dense fog late this evening along the Lakeshore...

Light winds and a very moist airmass will combine to result in
falling visibility in fog along the Lakeshore through late this
evening. Visibility may locally be reduced to one quarter mile or
less. Areas of dense fog are then expected to spread inland
overnight... and a dense fog advisory may be needed. If driving
through the overnight... be alert for significantly reduced
visibility.


Rc